Archival Weather

Sydney Intl

Sydney, Australia (YSSY)

Report from: Sunday, March 19, 2023 9:30 AM AEDT
Current time: Tuesday, February 27, 2024 10:16 PM AEDT

Current weather – Weather history – Daily summaries
Weather forecast

Present weatherFog in the vicinity, TO
Temperature24.0°C (75.2°F)
Dew point21.0°C (69.8°F)
Winds 8 kts (4.1 m/s, 9.2 mph) North-Northwest (340°)
Visibility4.3 mi. (7 km)
Clouds Few clouds 300 ft. (91 m)
Altimeter30.06 in.Hg (1018 mB)
Relative humidity83 %
Density altitude1,220 ft. (372 m)
Remarks Special weather observation
Flight conditions Marginal Visual Meteorological Conditions
Raw dataSPAU31 KWBC 182316 SPECI YSSY 182230Z 34008KT 7000 VCFG FEW003 24/21 Q1018 RF00/0/000/0 VIS REDUCED TO NORTH
An error has occurred. This application may no longer respond until reloaded. Reload 🗙